Time;durP1;ratioP1;P1;durP2;ratioP2;P2;SDS_P1;SDS_P2;PMS_P1;PMS_P2;Temp;Humidity;BMP_temperature;BMP_pressure;BME280_temperature;BME280_humidity;BME280_pressure;Samples;Min_cycle;Max_cycle;Signal;HPM_P1;HPM_P2
2021/06/12 00:00:10;;;;;;;7.17;4.97;;;;;;;24.60;53.89;101218.88;1700115;83;21047;-48
2021/06/12 00:02:37;;;;;;;6.53;5.00;;;;;;;24.58;53.85;101218.14;1613371;87;21123;-49
2021/06/12 00:05:06;;;;;;;5.87;5.30;;;;;;;24.54;53.97;101216.20;1620509;88;21064;-48
2021/06/12 00:07:33;;;;;;;7.03;5.00;;;;;;;24.53;54.01;101216.28;1618451;87;21547;-49
2021/06/12 00:10:07;;;;;;;7.28;4.67;;;;;;;24.51;54.04;101215.55;1615025;88;21031;-48
2021/06/12 00:12:36;;;;;;;5.90;4.70;;;;;;;24.49;54.24;101216.14;1609132;87;21609;-48
2021/06/12 00:15:09;;;;;;;5.03;4.08;;;;;;;24.46;54.29;101209.72;1582047;88;22289;-49
2021/06/12 00:17:36;;;;;;;5.10;4.60;;;;;;;24.45;54.35;101211.52;1615652;87;21059;-48
2021/06/12 00:20:06;;;;;;;5.65;4.45;;;;;;;24.45;54.31;101210.67;1575679;89;21052;-49
2021/06/12 00:22:33;;;;;;;5.47;4.30;;;;;;;24.42;54.27;101206.91;1601707;87;21135;-49
2021/06/12 00:25:00;;;;;;;5.45;4.95;;;;;;;24.40;54.24;101212.83;1595147;88;21050;-48
2021/06/12 00:27:26;;;;;;;5.05;4.00;;;;;;;24.38;54.11;101201.45;1567254;90;21065;-48
2021/06/12 00:29:55;;;;;;;6.97;4.10;;;;;;;24.37;54.10;101204.58;1530232;91;21073;-49
2021/06/12 00:32:21;;;;;;;4.42;3.90;;;;;;;24.34;54.18;101198.13;1617480;87;21153;-48
2021/06/12 00:34:48;;;;;;;4.95;3.92;;;;;;;24.32;54.17;101202.72;1631128;87;21102;-48
2021/06/12 00:37:15;;;;;;;4.30;3.30;;;;;;;24.30;54.21;101202.48;1624912;88;21091;-48
2021/06/12 00:39:42;;;;;;;3.75;3.40;;;;;;;24.28;54.37;101200.41;1611783;88;21119;-48
2021/06/12 00:42:09;;;;;;;3.55;3.25;;;;;;;24.27;54.49;101201.36;1611359;87;21543;-49
2021/06/12 00:44:36;;;;;;;4.03;3.10;;;;;;;24.24;54.61;101202.42;1549507;91;21558;-49
2021/06/12 00:47:03;;;;;;;2.98;2.70;;;;;;;24.23;54.74;101206.05;1594617;88;21067;-48
2021/06/12 00:49:30;;;;;;;3.17;2.87;;;;;;;24.21;54.77;101201.33;1607960;88;21032;-48
2021/06/12 00:51:57;;;;;;;3.17;2.67;;;;;;;24.21;54.77;101203.48;1577257;91;21120;-49
2021/06/12 00:54:24;;;;;;;3.50;3.25;;;;;;;24.19;54.80;101200.08;1613188;88;21552;-48
2021/06/12 00:56:51;;;;;;;3.12;2.90;;;;;;;24.18;54.91;101206.37;1613900;87;21071;-48
2021/06/12 00:59:18;;;;;;;3.30;3.00;;;;;;;24.18;55.01;101206.84;1619077;85;21485;-48
2021/06/12 01:01:45;;;;;;;3.60;3.10;;;;;;;24.15;55.16;101206.58;1663939;85;21564;-48
2021/06/12 01:04:12;;;;;;;4.58;3.10;;;;;;;24.14;55.27;101202.23;1643946;85;21036;-48
2021/06/12 01:06:41;;;;;;;4.03;2.90;;;;;;;24.14;55.36;101207.55;1632623;87;21037;-48
2021/06/12 01:09:08;;;;;;;5.10;3.50;;;;;;;24.12;55.51;101205.95;1703551;83;21053;-49
2021/06/12 01:11:40;;;;;;;3.30;2.95;;;;;;;24.11;55.61;101202.94;1695991;83;21022;-48
2021/06/12 01:14:17;;;;;;;3.75;3.33;;;;;;;24.11;55.79;101213.06;1708656;83;20979;-49
2021/06/12 01:17:11;;;;;;;3.65;3.05;;;;;;;24.10;55.98;101210.05;1677165;83;21034;-49
2021/06/12 01:19:43;;;;;;;6.70;4.00;;;;;;;24.11;56.14;101209.08;1699222;83;22579;-49
2021/06/12 01:22:21;;;;;;;3.50;3.20;;;;;;;24.10;56.34;101208.73;1685073;83;21034;-48
2021/06/12 01:25:07;;;;;;;4.90;3.20;;;;;;;24.11;56.41;101206.92;1676360;83;21070;-49
2021/06/12 01:27:46;;;;;;;4.08;3.70;;;;;;;24.10;56.33;101208.73;1701407;83;21030;-48
2021/06/12 01:30:23;;;;;;;9.60;4.90;;;;;;;24.10;56.16;101210.53;1694938;83;21058;-48
2021/06/12 01:33:03;;;;;;;4.75;4.00;;;;;;;24.07;56.05;101206.27;1681441;83;21084;-48
2021/06/12 01:35:37;;;;;;;;;;;;;;;24.07;56.02;101214.25;1670700;84;21057;-48
2021/06/12 01:38:06;;;;;;;3.50;3.17;;;;;;;24.04;55.90;101206.50;1639732;85;20530;-48
2021/06/12 01:40:35;;;;;;;7.25;3.83;;;;;;;24.02;55.63;101214.17;1656850;85;21034;-49
2021/06/12 01:43:03;;;;;;;4.83;3.02;;;;;;;23.99;55.38;101209.91;1649136;85;21047;-49
2021/06/12 01:45:30;;;;;;;4.55;3.15;;;;;;;23.94;55.34;101208.55;1632833;86;21015;-48
2021/06/12 01:47:57;;;;;;;5.50;3.50;;;;;;;23.90;55.33;101207.92;1615819;87;21027;-48
2021/06/12 01:50:24;;;;;;;3.30;3.00;;;;;;;23.87;55.39;101202.80;1621074;86;21070;-48
2021/06/12 01:52:52;;;;;;;3.85;3.00;;;;;;;23.87;55.42;101202.80;1639582;86;21014;-48
2021/06/12 01:55:25;;;;;;;3.25;2.72;;;;;;;23.84;55.82;101200.38;1642727;85;21298;-48
2021/06/12 01:57:52;;;;;;;3.25;2.83;;;;;;;23.82;56.29;101203.59;1639192;84;21029;-49
2021/06/12 02:00:21;;;;;;;3.37;3.08;;;;;;;23.81;56.87;101204.56;1642154;86;21016;-49
2021/06/12 02:02:47;;;;;;;3.98;3.58;;;;;;;23.78;57.24;101202.10;1656359;85;21580;-49
2021/06/12 02:05:23;;;;;;;3.45;3.15;;;;;;;23.78;57.45;101204.76;1649380;85;21064;-49
2021/06/12 02:07:51;;;;;;;6.97;3.20;;;;;;;23.78;57.52;101207.41;1641127;85;21038;-48
2021/06/12 02:10:20;;;;;;;5.87;4.22;;;;;;;23.78;57.57;101214.06;1650055;85;21650;-49
2021/06/12 02:12:48;;;;;;;3.50;3.17;;;;;;;23.79;57.54;101222.42;1649811;85;21113;-49
2021/06/12 02:15:15;;;;;;;4.75;3.05;;;;;;;23.80;57.59;101218.79;1625410;86;21055;-48
2021/06/12 02:17:42;;;;;;;3.22;2.90;;;;;;;23.82;57.64;101222.19;1695488;83;21597;-48
2021/06/12 02:20:12;;;;;;;3.15;2.85;;;;;;;23.84;57.71;101224.30;1670062;83;21079;-49
2021/06/12 02:22:49;;;;;;;3.45;3.15;;;;;;;23.86;57.79;101223.71;1687700;84;21053;-48
2021/06/12 02:25:16;;;;;;;6.60;3.17;;;;;;;23.87;57.86;101225.39;1645780;86;21055;-49
2021/06/12 02:27:48;;;;;;;4.03;3.30;;;;;;;23.89;57.88;101228.80;1651910;86;21047;-49
2021/06/12 02:30:17;;;;;;;4.05;3.65;;;;;;;23.90;57.95;101225.20;1631193;86;21075;-49
2021/06/12 02:32:49;;;;;;;5.83;3.70;;;;;;;23.92;57.92;101233.91;1691573;83;21053;-48
2021/06/12 02:35:15;;;;;;;5.83;4.47;;;;;;;23.93;57.97;101234.27;1697146;83;21026;-48
2021/06/12 02:37:43;;;;;;;4.22;3.75;;;;;;;23.94;57.96;101233.33;1709212;82;21034;-48
2021/06/12 02:40:10;;;;;;;10.35;4.30;;;;;;;23.96;57.94;101235.88;1700770;83;20997;-48
2021/06/12 02:42:37;;;;;;;5.58;3.72;;;;;;;23.97;57.97;101230.91;1685586;83;21527;-48
2021/06/12 02:45:05;;;;;;;6.78;3.60;;;;;;;23.99;58.02;101240.48;1679144;84;21010;-49
2021/06/12 02:47:32;;;;;;;7.58;3.95;;;;;;;24.01;58.00;101239.91;1679500;83;21486;-48
2021/06/12 02:49:59;;;;;;;4.53;3.67;;;;;;;24.03;57.94;101248.65;1642076;83;21026;-48
2021/06/12 02:52:29;;;;;;;3.80;3.35;;;;;;;24.05;57.94;101250.72;1685503;83;21055;-49
2021/06/12 02:54:56;;;;;;;5.67;3.98;;;;;;;24.07;57.94;101255.45;1686310;83;21058;-49
2021/06/12 02:57:23;;;;;;;3.70;3.37;;;;;;;24.09;57.92;101254.87;1675812;84;20978;-49
2021/06/12 02:59:49;;;;;;;4.58;3.75;;;;;;;24.11;57.93;101254.78;1693634;84;21102;-49
2021/06/12 03:02:17;;;;;;;4.53;3.47;;;;;;;24.12;57.89;101258.66;1653072;84;21055;-48
2021/06/12 03:04:44;;;;;;;3.70;3.12;;;;;;;24.13;57.84;101260.84;1694951;84;20991;-49
2021/06/12 03:07:13;;;;;;;4.22;3.62;;;;;;;24.15;57.62;101262.41;1703105;84;21600;-48
2021/06/12 03:09:39;;;;;;;4.62;3.37;;;;;;;24.19;57.55;101255.92;1685575;82;21022;-48
2021/06/12 03:12:08;;;;;;;7.10;3.87;;;;;;;24.20;57.51;101260.30;1660356;85;21002;-49
2021/06/12 03:14:35;;;;;;;9.95;4.45;;;;;;;24.20;57.51;101260.30;1696773;84;21058;-49
2021/06/12 03:17:02;;;;;;;6.92;4.12;;;;;;;24.22;57.53;101259.70;1669157;84;21515;-48
2021/06/12 03:19:28;;;;;;;4.10;3.50;;;;;;;24.22;57.68;101265.03;1707748;83;21492;-49
2021/06/12 03:21:55;;;;;;;4.12;3.65;;;;;;;24.22;57.77;101265.03;1695263;83;21020;-49
2021/06/12 03:24:22;;;;;;;4.85;3.37;;;;;;;24.24;57.83;101263.58;1708412;83;21055;-48
2021/06/12 03:26:48;;;;;;;6.50;4.35;;;;;;;24.27;57.92;101269.17;1696837;83;22143;-48
2021/06/12 03:29:15;;;;;;;4.25;3.50;;;;;;;24.30;57.97;101270.30;1635794;84;21040;-49
2021/06/12 03:31:42;;;;;;;7.45;3.37;;;;;;;24.33;57.87;101275.39;1684792;83;21050;-48
2021/06/12 03:34:09;;;;;;;4.47;3.58;;;;;;;24.36;57.81;101277.84;1680610;83;21165;-49
2021/06/12 03:36:36;;;;;;;6.15;3.47;;;;;;;24.40;57.78;101281.98;1702499;83;21051;-48
2021/06/12 03:39:04;;;;;;;3.85;3.17;;;;;;;24.46;57.92;101280.22;1686908;83;21050;-49
2021/06/12 03:41:31;;;;;;;3.70;3.40;;;;;;;24.68;58.08;101281.70;1690372;83;21003;-48
2021/06/12 03:43:57;;;;;;;4.05;3.12;;;;;;;25.15;57.28;101283.12;1676737;84;20992;-49
2021/06/12 03:46:24;;;;;;;6.72;2.98;;;;;;;25.84;55.69;101283.16;1659099;84;21063;-49
2021/06/12 03:48:52;;;;;;;4.85;3.25;;;;;;;27.57;51.63;101285.22;1683213;83;21065;-49
2021/06/12 03:51:20;;;;;;;4.42;3.12;;;;;;;27.57;51.63;101285.22;1683013;83;21090;-49
2021/06/12 03:53:47;;;;;;;5.87;3.08;;;;;;;28.45;49.49;101288.66;1680413;83;21082;-49
2021/06/12 03:56:17;;;;;;;3.70;2.87;;;;;;;29.31;47.29;101288.05;1692050;83;21015;-49
2021/06/12 03:58:45;;;;;;;4.05;3.15;;;;;;;30.14;45.23;101277.53;1688949;83;21038;-49
2021/06/12 04:01:14;;;;;;;4.37;2.87;;;;;;;30.92;43.31;101282.44;1690315;83;21027;-49
2021/06/12 04:03:44;;;;;;;4.33;2.80;;;;;;;31.57;41.49;101282.13;1635627;86;21065;-49
2021/06/12 04:06:10;;;;;;;3.70;3.10;;;;;;;31.91;40.12;101279.01;1644744;86;21083;-49
2021/06/12 04:08:37;;;;;;;4.87;3.00;;;;;;;31.90;39.62;101289.41;1647058;86;21063;-49
2021/06/12 04:11:05;;;;;;;3.02;2.72;;;;;;;31.65;39.71;101290.26;1656753;86;21058;-49
2021/06/12 04:13:32;;;;;;;2.92;2.72;;;;;;;31.30;40.18;101290.25;1655135;84;21066;-49
2021/06/12 04:15:59;;;;;;;3.10;2.80;;;;;;;30.98;40.67;101291.23;1657119;86;21081;-48
2021/06/12 04:18:26;;;;;;;5.12;2.65;;;;;;;30.66;41.25;101285.47;1651743;86;21109;-48
2021/06/12 04:20:52;;;;;;;3.67;2.98;;;;;;;30.31;41.75;101288.40;1645426;86;21114;-48
2021/06/12 04:23:19;;;;;;;5.50;3.40;;;;;;;29.96;42.29;101289.53;1638560;86;21092;-49
2021/06/12 04:25:46;;;;;;;4.70;2.65;;;;;;;29.61;42.86;101287.93;1652485;85;21126;-49
2021/06/12 04:28:13;;;;;;;6.05;2.70;;;;;;;29.23;43.60;101288.77;1701180;83;21051;-49
2021/06/12 04:30:39;;;;;;;4.15;2.80;;;;;;;28.85;44.27;101289.51;1692876;83;21602;-48
2021/06/12 04:33:06;;;;;;;5.37;2.80;;;;;;;28.50;45.05;101294.44;1690525;83;21097;-48
2021/06/12 04:35:33;;;;;;;4.80;3.30;;;;;;;28.21;45.72;101296.16;1680950;83;21502;-49
2021/06/12 04:38:00;;;;;;;18.60;4.80;;;;;;;27.94;46.10;101297.16;1692377;84;21063;-48
2021/06/12 04:40:33;;;;;;;7.05;2.70;;;;;;;27.70;46.67;101297.41;1678182;83;21035;-48
2021/06/12 04:43:01;;;;;;;2.90;2.50;;;;;;;27.51;47.20;101298.63;1702989;82;21050;-48
2021/06/12 04:45:28;;;;;;;9.68;2.55;;;;;;;27.31;47.74;101302.05;1694820;84;21007;-48
2021/06/12 04:47:56;;;;;;;3.02;2.67;;;;;;;27.14;48.22;101300.77;1689854;83;21043;-48
2021/06/12 04:50:24;;;;;;;3.98;2.47;;;;;;;27.02;48.52;101307.11;1686589;83;21495;-47
2021/06/12 04:52:50;;;;;;;5.78;2.72;;;;;;;26.91;48.91;101312.50;1672538;83;21534;-47
2021/06/12 04:55:18;;;;;;;3.77;3.12;;;;;;;26.83;49.26;101317.58;1666129;84;21035;-47
2021/06/12 04:57:45;;;;;;;3.87;2.85;;;;;;;26.81;49.47;101319.53;1689026;83;21544;-48
2021/06/12 05:00:13;;;;;;;3.50;3.20;;;;;;;26.78;49.62;101318.45;1645769;86;21003;-47
2021/06/12 05:02:41;;;;;;;3.37;2.80;;;;;;;26.77;49.51;101319.41;1639890;85;22154;-48
2021/06/12 05:05:10;;;;;;;3.27;2.80;;;;;;;26.82;49.65;101316.38;1688762;84;20967;-47
2021/06/12 05:07:37;;;;;;;3.17;2.87;;;;;;;26.90;49.49;101321.47;1696439;83;21016;-47
2021/06/12 05:10:05;;;;;;;4.80;3.00;;;;;;;27.03;49.46;101312.84;1696936;83;21049;-48
2021/06/12 05:12:32;;;;;;;3.25;2.95;;;;;;;27.21;49.34;101315.33;1698108;84;21039;-49
2021/06/12 05:15:00;;;;;;;3.30;3.00;;;;;;;27.39;48.91;101316.52;1647488;84;21046;-47
2021/06/12 05:17:28;;;;;;;6.70;2.85;;;;;;;27.61;48.71;101320.08;1680856;83;21035;-46
2021/06/12 05:19:55;;;;;;;3.25;2.92;;;;;;;27.79;48.38;101322.05;1706022;83;21475;-46
2021/06/12 05:22:26;;;;;;;3.12;2.70;;;;;;;27.97;48.07;101321.85;1693601;82;21116;-47
2021/06/12 05:24:54;;;;;;;5.53;2.75;;;;;;;28.16;47.98;101323.31;1709917;83;21054;-46
2021/06/12 05:27:21;;;;;;;2.98;2.67;;;;;;;28.37;47.49;101323.28;1697295;83;20990;-46
2021/06/12 05:29:48;;;;;;;3.27;2.98;;;;;;;28.53;46.88;101323.64;1681655;83;21082;-46
2021/06/12 05:32:15;;;;;;;4.85;3.30;;;;;;;28.63;46.61;101329.91;1680519;84;21043;-46
2021/06/12 05:34:43;;;;;;;10.53;3.05;;;;;;;28.70;46.54;101337.77;1699453;83;21030;-47
2021/06/12 05:37:10;;;;;;;3.98;3.22;;;;;;;28.76;46.30;101333.20;1660615;84;21021;-47
2021/06/12 05:39:37;;;;;;;3.20;2.98;;;;;;;28.81;46.07;101329.61;1678752;84;20992;-47
2021/06/12 05:42:06;;;;;;;3.35;2.98;;;;;;;28.87;45.88;101330.92;1646882;85;21519;-47
2021/06/12 05:44:33;;;;;;;5.10;4.15;;;;;;;28.92;45.83;101332.68;1692000;84;21031;-47
2021/06/12 05:47:00;;;;;;;6.33;3.37;;;;;;;29.00;45.79;101334.70;1680243;84;21089;-49
2021/06/12 05:49:27;;;;;;;6.78;3.22;;;;;;;29.11;45.56;101335.89;1649143;85;21039;-47
2021/06/12 05:51:54;;;;;;;9.70;8.75;;;;;;;29.22;45.27;101329.97;1680343;84;21079;-48
2021/06/12 05:54:21;;;;;;;5.75;4.97;;;;;;;29.36;45.19;101334.92;1669565;83;20996;-48
2021/06/12 05:56:47;;;;;;;3.77;3.30;;;;;;;29.50;45.04;101331.82;1667233;83;21022;-48
2021/06/12 05:59:14;;;;;;;7.40;3.00;;;;;;;29.63;44.57;101330.20;1669156;84;21113;-48
2021/06/12 06:01:41;;;;;;;4.78;3.37;;;;;;;29.76;44.31;101340.16;1659932;84;21038;-48
2021/06/12 06:04:08;;;;;;;3.08;2.87;;;;;;;29.90;44.38;101339.75;1701042;82;21011;-48
2021/06/12 06:06:35;;;;;;;6.00;3.20;;;;;;;30.02;44.13;101332.37;1690801;83;21002;-48
2021/06/12 06:09:03;;;;;;;4.95;3.12;;;;;;;30.12;43.77;101339.42;1712258;82;21073;-48
2021/06/12 06:11:29;;;;;;;4.78;3.67;;;;;;;30.21;43.73;101331.82;1662780;84;21519;-48
2021/06/12 06:13:56;;;;;;;5.08;4.00;;;;;;;30.36;43.66;101338.46;1660353;85;21518;-48
2021/06/12 06:16:24;;;;;;;20.12;18.02;;;;;;;30.60;43.17;101333.08;1669225;84;21030;-48
2021/06/12 06:18:51;;;;;;;11.60;10.50;;;;;;;30.91;42.20;101337.20;1683460;83;21047;-47
2021/06/12 06:21:19;;;;;;;7.97;5.20;;;;;;;31.23;41.56;101334.87;1688073;84;21054;-47
2021/06/12 06:23:47;;;;;;;4.08;3.62;;;;;;;31.49;40.92;101331.79;1699856;84;21111;-48
2021/06/12 06:26:15;;;;;;;4.95;3.98;;;;;;;31.63;40.68;101332.62;1690998;83;21073;-48
2021/06/12 06:28:43;;;;;;;3.95;3.10;;;;;;;31.67;40.58;101328.61;1688208;84;21483;-48
2021/06/12 06:31:10;;;;;;;3.72;3.37;;;;;;;31.63;40.36;101332.62;1697929;84;21018;-48
2021/06/12 06:33:37;;;;;;;4.60;4.20;;;;;;;31.54;40.87;101330.84;1697937;83;21102;-48
2021/06/12 06:36:05;;;;;;;4.60;4.20;;;;;;;31.41;41.22;101333.06;1695777;82;21533;-48
2021/06/12 06:38:32;;;;;;;4.05;3.47;;;;;;;31.26;41.31;101336.74;1686720;83;21041;-47
2021/06/12 06:40:59;;;;;;;7.87;4.05;;;;;;;31.11;41.48;101338.77;1684516;83;21023;-48
2021/06/12 06:43:26;;;;;;;4.90;4.47;;;;;;;30.94;41.64;101336.89;1695314;81;21176;-47
2021/06/12 06:45:53;;;;;;;4.35;3.77;;;;;;;30.78;42.22;101339.35;1680174;83;20998;-47
2021/06/12 06:48:20;;;;;;;7.37;4.33;;;;;;;30.63;42.61;101336.80;1681622;83;21015;-47
2021/06/12 06:50:47;;;;;;;6.78;5.12;;;;;;;30.50;42.97;101339.33;1679913;83;21117;-48
2021/06/12 06:53:16;;;;;;;6.97;5.37;;;;;;;30.37;43.36;101336.62;1695516;84;21066;-47
2021/06/12 06:55:43;;;;;;;3.83;3.50;;;;;;;30.26;43.59;101336.76;1682713;84;21061;-47
2021/06/12 06:58:10;;;;;;;6.17;3.42;;;;;;;30.16;43.53;101332.77;1674055;84;21140;-47
2021/06/12 07:00:37;;;;;;;3.40;3.10;;;;;;;30.10;43.63;101336.03;1694846;84;21074;-47
2021/06/12 07:03:04;;;;;;;4.45;3.33;;;;;;;30.07;43.62;101338.99;1690900;82;21030;-47
2021/06/12 07:05:33;;;;;;;4.03;3.37;;;;;;;30.16;43.50;101340.82;1693933;84;21007;-48
2021/06/12 07:08:01;;;;;;;3.27;3.00;;;;;;;30.34;42.82;101339.10;1645241;85;21565;-48
2021/06/12 07:10:28;;;;;;;5.75;3.10;;;;;;;30.52;42.32;101341.36;1685191;82;21101;-47
2021/06/12 07:13:02;;;;;;;6.75;3.08;;;;;;;30.63;41.99;101341.67;1656103;85;21605;-47
2021/06/12 07:15:29;;;;;;;6.00;3.10;;;;;;;30.68;41.93;101343.92;1611155;86;21091;-47
2021/06/12 07:17:56;;;;;;;4.22;3.25;;;;;;;30.72;41.97;101346.17;1605880;87;21008;-48
2021/06/12 07:20:24;;;;;;;8.48;7.75;;;;;;;30.77;42.12;101352.45;1600488;87;21097;-48
2021/06/12 07:22:51;;;;;;;4.47;3.77;;;;;;;30.81;42.21;101351.16;1597576;88;21090;-47
2021/06/12 07:25:18;;;;;;;4.50;3.15;;;;;;;30.81;41.89;101349.81;1609314;88;21003;-48
2021/06/12 07:27:45;;;;;;;5.97;3.87;;;;;;;30.79;42.19;101357.18;1608445;88;21161;-48
2021/06/12 07:30:14;;;;;;;6.95;5.87;;;;;;;30.71;42.24;101357.08;1595078;89;21069;-47
2021/06/12 07:32:41;;;;;;;4.90;4.50;;;;;;;30.63;42.22;101367.69;1602755;88;21061;-48
2021/06/12 07:35:09;;;;;;;8.53;7.60;;;;;;;30.52;42.29;101362.85;1598069;88;21154;-48
2021/06/12 07:37:36;;;;;;;6.72;5.30;;;;;;;30.42;42.86;101363.38;1606889;86;21093;-48
2021/06/12 07:40:05;;;;;;;9.90;6.90;;;;;;;30.34;42.85;101361.92;1653490;84;21050;-48
2021/06/12 07:42:33;;;;;;;6.03;3.62;;;;;;;30.24;42.84;101357.05;1655636;86;21046;-48
2021/06/12 07:44:59;;;;;;;3.72;3.10;;;;;;;30.15;43.04;101363.27;1649411;86;21544;-48
2021/06/12 07:47:26;;;;;;;7.67;3.70;;;;;;;30.07;42.96;101362.33;1656942;85;21035;-48
2021/06/12 07:49:54;;;;;;;3.30;3.00;;;;;;;29.96;43.62;101359.30;1639227;85;21086;-48
2021/06/12 07:52:21;;;;;;;4.37;3.58;;;;;;;29.89;43.80;101366.22;1648269;85;21038;-48
2021/06/12 07:54:48;;;;;;;3.22;2.90;;;;;;;29.82;44.02;101362.91;1659010;85;21051;-49
2021/06/12 07:57:15;;;;;;;5.33;3.83;;;;;;;29.73;44.05;101368.14;1654689;86;21081;-48
2021/06/12 07:59:42;;;;;;;3.58;3.27;;;;;;;29.64;44.08;101363.58;1662555;84;21028;-48
2021/06/12 08:02:09;;;;;;;11.73;10.10;;;;;;;29.59;44.30;101367.68;1648463;85;21094;-48
2021/06/12 08:04:36;;;;;;;8.08;6.03;;;;;;;29.51;44.43;101360.84;1650011;85;21078;-48
2021/06/12 08:07:04;;;;;;;4.17;3.77;;;;;;;29.48;44.92;101365.13;1650219;85;21103;-48
2021/06/12 08:09:31;;;;;;;3.58;2.85;;;;;;;29.42;45.32;101353.61;1646624;85;21516;-48
2021/06/12 08:11:58;;;;;;;4.33;2.77;;;;;;;29.38;45.66;101360.25;1671134;83;20994;-48
2021/06/12 08:14:25;;;;;;;3.77;3.25;;;;;;;29.32;46.03;101353.61;1709917;82;21507;-47
2021/06/12 08:16:52;;;;;;;3.08;2.55;;;;;;;29.28;45.96;101356.22;1679153;83;21046;-48
2021/06/12 08:19:19;;;;;;;6.42;2.85;;;;;;;29.26;46.08;101360.02;1694883;82;21058;-49
2021/06/12 08:21:46;;;;;;;3.40;2.58;;;;;;;29.22;46.32;101362.63;1707159;81;21068;-48
2021/06/12 08:24:13;;;;;;;4.15;3.05;;;;;;;29.19;46.62;101360.20;1668229;83;21106;-48
2021/06/12 08:26:41;;;;;;;4.72;4.10;;;;;;;29.19;46.67;101361.55;1617264;84;21082;-49
2021/06/12 08:29:08;;;;;;;7.33;6.60;;;;;;;29.17;46.81;101363.52;1688288;83;21078;-48
2021/06/12 08:31:36;;;;;;;10.78;8.95;;;;;;;29.17;46.71;101366.20;1685921;83;21063;-48
2021/06/12 08:34:03;;;;;;;3.92;3.55;;;;;;;29.16;46.70;101361.84;1699025;83;21047;-48
2021/06/12 08:36:31;;;;;;;5.10;3.70;;;;;;;29.13;46.50;101362.06;1696122;84;21004;-48
2021/06/12 08:38:58;;;;;;;4.08;2.98;;;;;;;29.11;46.70;101361.36;1684563;83;21070;-49
2021/06/12 08:41:25;;;;;;;3.00;2.65;;;;;;;29.09;46.52;101353.95;1695688;84;21038;-48
2021/06/12 08:43:58;;;;;;;3.60;2.83;;;;;;;29.08;46.38;101356.28;1681553;84;21533;-48
2021/06/12 08:46:26;;;;;;;10.40;8.23;;;;;;;29.05;46.37;101352.05;1678962;83;21050;-49
2021/06/12 08:48:53;;;;;;;7.30;6.60;;;;;;;29.03;46.24;101350.48;1681900;83;21115;-48
2021/06/12 08:51:20;;;;;;;4.67;3.22;;;;;;;29.03;46.21;101351.81;1682022;83;21081;-48
2021/06/12 08:53:49;;;;;;;5.20;3.52;;;;;;;29.02;46.40;101352.82;1674260;84;21014;-48
2021/06/12 08:56:16;;;;;;;7.95;3.92;;;;;;;29.00;46.57;101350.77;1672977;83;21571;-49
2021/06/12 08:58:43;;;;;;;14.87;12.05;;;;;;;29.02;46.70;101351.48;1685520;83;21563;-48
2021/06/12 09:01:10;;;;;;;6.20;5.30;;;;;;;29.04;46.58;101346.83;1698420;83;21066;-48
2021/06/12 09:03:45;;;;;;;2.92;2.65;;;;;;;29.06;46.68;101342.18;1676306;84;21002;-48
2021/06/12 09:06:13;;;;;;;3.67;2.75;;;;;;;29.09;46.72;101344.56;1684714;84;21118;-48
2021/06/12 09:08:41;;;;;;;4.42;2.85;;;;;;;29.12;46.82;101342.97;1684147;84;21059;-49
2021/06/12 09:11:13;;;;;;;2.65;2.40;;;;;;;29.16;46.82;101337.72;1670573;84;21122;-48
2021/06/12 09:13:45;;;;;;;4.72;2.72;;;;;;;29.21;46.53;101334.11;1686366;84;21081;-48
2021/06/12 09:16:37;;;;;;;5.75;2.92;;;;;;;29.22;46.57;101334.48;1683154;84;21050;-48
2021/06/12 09:19:09;;;;;;;2.90;2.50;;;;;;;29.24;46.56;101333.36;1674615;84;21117;-48
2021/06/12 09:21:38;;;;;;;5.70;5.10;;;;;;;29.25;46.38;101337.72;1680521;84;21097;-48
2021/06/12 09:24:25;;;;;;;5.20;3.83;;;;;;;29.22;46.28;101332.66;1675043;83;21054;-48
2021/06/12 09:27:03;;;;;;;3.60;2.87;;;;;;;29.23;46.12;101334.81;1677287;83;21059;-48
2021/06/12 09:29:35;;;;;;;5.08;2.22;;;;;;;29.21;45.92;101332.77;1689835;84;21061;-48
2021/06/12 09:32:12;;;;;;;4.30;2.37;;;;;;;29.21;45.97;101335.45;1688253;83;21583;-49
2021/06/12 09:34:39;;;;;;;3.65;2.27;;;;;;;29.20;45.78;101339.98;1680720;84;21029;-47
2021/06/12 09:37:16;;;;;;;2.50;2.30;;;;;;;29.20;45.99;101339.13;1697049;84;21033;-47
2021/06/12 09:40:13;;;;;;;3.02;2.62;;;;;;;29.21;45.90;101340.33;1674015;85;21136;-48
2021/06/12 09:42:55;;;;;;;2.75;2.55;;;;;;;29.23;45.92;101337.50;1615616;86;21061;-47
2021/06/12 09:45:28;;;;;;;4.42;3.60;;;;;;;29.19;45.92;101334.74;1626728;86;21582;-48
2021/06/12 09:48:15;;;;;;;3.12;2.83;;;;;;;29.14;45.71;101339.66;1607498;87;21638;-48
2021/06/12 09:50:45;;;;;;;8.68;2.83;;;;;;;29.06;45.98;101340.84;1616964;87;21061;-47
2021/06/12 09:53:22;;;;;;;2.90;2.37;;;;;;;28.97;46.19;101344.67;1616958;87;21039;-47
2021/06/12 09:55:49;;;;;;;5.92;4.37;;;;;;;28.90;46.08;101340.86;1610807;86;21149;-47
2021/06/12 09:58:17;;;;;;;5.37;4.87;;;;;;;28.83;46.18;101347.73;1599691;88;21089;-47
2021/06/12 10:00:47;;;;;;;6.30;2.95;;;;;;;28.73;46.22;101352.21;1619264;87;21022;-47
2021/06/12 10:03:23;;;;;;;5.25;3.02;;;;;;;28.65;46.75;101351.19;1641365;85;21015;-47
2021/06/12 10:06:27;;;;;;;2.92;2.72;;;;;;;28.56;47.44;101347.52;1629241;86;21593;-47
2021/06/12 10:08:54;;;;;;;3.25;2.52;;;;;;;28.51;47.73;101349.70;1595555;88;21058;-48
2021/06/12 10:11:26;;;;;;;11.95;10.53;;;;;;;28.44;47.61;101339.15;1592183;89;21113;-48
2021/06/12 10:13:53;;;;;;;7.87;5.80;;;;;;;28.39;47.45;101336.53;1597387;88;21063;-49
2021/06/12 10:16:22;;;;;;;3.58;3.22;;;;;;;28.32;47.73;101340.22;1587500;89;21121;-46
2021/06/12 10:18:52;;;;;;;3.52;2.77;;;;;;;28.29;47.76;101335.15;1600096;88;21108;-46
2021/06/12 10:21:19;;;;;;;8.45;6.75;;;;;;;28.25;47.73;101329.70;1541456;91;21048;-49
2021/06/12 10:23:48;;;;;;;6.62;3.83;;;;;;;28.20;48.04;101330.58;1559425;91;21035;-47
2021/06/12 10:26:18;;;;;;;3.60;2.62;;;;;;;28.13;48.14;101329.43;1570088;89;21617;-47
2021/06/12 10:28:45;;;;;;;;;;;;;;;28.07;48.18;101327.25;1512419;93;21612;-47
2021/06/12 10:31:22;;;;;;;5.72;2.85;;;;;;;28.00;48.58;101322.08;1510344;94;20118;-47
2021/06/12 10:33:52;;;;;;;4.17;2.65;;;;;;;27.93;48.66;101316.85;1471645;96;21092;-47
2021/06/12 10:36:23;;;;;;;2.70;2.50;;;;;;;27.89;48.84;101314.08;1486953;94;21241;-49
2021/06/12 10:38:51;;;;;;;8.53;7.15;;;;;;;27.87;49.50;101310.69;1509388;91;21124;-47
2021/06/12 10:41:27;;;;;;;3.80;3.45;;;;;;;27.92;49.68;101305.81;1551530;90;21140;-47
2021/06/12 10:43:59;;;;;;;3.62;2.77;;;;;;;28.00;49.34;101314.06;1553491;91;21063;-46
2021/06/12 10:46:28;;;;;;;3.98;3.58;;;;;;;28.08;49.25;101307.08;1557372;90;21117;-47
2021/06/12 10:48:59;;;;;;;4.78;4.28;;;;;;;28.18;49.12;101312.47;1536708;91;21132;-48
2021/06/12 10:51:31;;;;;;;2.92;2.72;;;;;;;28.29;48.83;101303.03;1545730;91;21712;-48
2021/06/12 10:54:26;;;;;;;4.15;2.35;;;;;;;28.36;48.33;101316.22;1557104;89;21492;-49
2021/06/12 10:57:13;;;;;;;2.90;2.70;;;;;;;28.41;48.04;101309.98;1558113;91;21239;-49
2021/06/12 10:59:45;;;;;;;21.10;4.33;;;;;;;28.42;47.96;101307.66;1519371;93;21094;-47
2021/06/12 11:02:21;;;;;;;25.32;4.15;;;;;;;28.44;47.96;101311.56;1520505;92;21113;-47
2021/06/12 11:04:57;;;;;;;5.37;2.75;;;;;;;28.45;47.86;101315.43;1523315;93;21565;-47
2021/06/12 11:07:32;;;;;;;5.03;2.52;;;;;;;28.49;47.97;101316.00;1522967;92;21103;-47
2021/06/12 11:10:19;;;;;;;2.62;2.40;;;;;;;28.50;47.97;101313.18;1521283;93;21090;-48
2021/06/12 11:12:56;;;;;;;3.12;2.52;;;;;;;28.52;48.13;101305.86;1544298;92;21065;-48
2021/06/12 11:15:27;;;;;;;12.65;4.47;;;;;;;28.54;48.09;101299.88;1547103;91;21109;-47
2021/06/12 11:18:22;;;;;;;11.03;4.75;;;;;;;28.58;47.84;101312.08;1533414;92;21107;-47
2021/06/12 11:21:04;;;;;;;18.85;3.85;;;;;;;28.59;47.60;101309.73;1546024;92;21153;-47
2021/06/12 11:23:54;;;;;;;9.20;3.80;;;;;;;28.58;47.46;101311.22;1545669;92;21554;-47
2021/06/12 11:26:18;;;;;;;8.03;3.50;;;;;;;28.54;47.35;101299.88;1614680;87;21094;-48
2021/06/12 11:28:47;;;;;;;5.80;3.22;;;;;;;28.48;47.45;101293.73;1616860;87;21143;-47
2021/06/12 11:31:29;;;;;;;14.70;4.00;;;;;;;28.43;47.63;101288.43;1627331;87;21068;-47
2021/06/12 11:34:18;;;;;;;3.90;2.90;;;;;;;28.35;47.64;101290.94;1625296;87;21123;-47